createdAt,value
2018-04-01T00:01:07.095Z,17.43
2018-04-01T00:03:41.250Z,14.50
2018-04-01T00:06:09.776Z,11.47
2018-04-01T00:08:38.239Z,11.83
2018-04-01T00:11:06.673Z,11.37
2018-04-01T00:13:35.114Z,12.60
2018-04-01T00:16:03.530Z,12.67
2018-04-01T00:18:31.973Z,11.70
2018-04-01T00:21:00.561Z,11.10
2018-04-01T00:23:28.966Z,12.07
2018-04-01T00:25:57.420Z,12.03
2018-04-01T00:28:25.952Z,12.20
2018-04-01T00:30:54.389Z,10.77
2018-04-01T00:33:23.887Z,10.70
2018-04-01T00:35:52.471Z,12.13
2018-04-01T00:38:21.770Z,10.97
2018-04-01T00:40:50.930Z,11.47
2018-04-01T00:43:19.357Z,11.17
2018-04-01T00:45:47.973Z,11.40
2018-04-01T00:48:20.402Z,12.33
2018-04-01T00:50:48.843Z,11.20
2018-04-01T00:53:17.268Z,11.03
2018-04-01T00:55:45.813Z,12.47
2018-04-01T00:58:14.995Z,12.17
2018-04-01T01:00:43.520Z,12.20
2018-04-01T01:03:12.654Z,11.93
2018-04-01T01:05:41.590Z,11.37
2018-04-01T01:08:10.119Z,11.10
2018-04-01T01:10:38.679Z,11.83
2018-04-01T01:13:07.364Z,10.80
2018-04-01T01:15:35.802Z,11.27
2018-04-01T01:18:07.732Z,10.30
2018-04-01T01:20:36.308Z,11.47
2018-04-01T01:23:04.773Z,11.03
2018-04-01T01:25:33.351Z,11.47
2018-04-01T01:28:02.545Z,10.87
2018-04-01T01:30:31.031Z,11.30
2018-04-01T01:32:59.715Z,9.20
2018-04-01T01:35:28.125Z,11.70
2018-04-01T01:37:56.678Z,11.87
2018-04-01T01:40:25.159Z,11.70
2018-04-01T01:42:53.661Z,11.43
2018-04-01T01:45:22.102Z,11.23
2018-04-01T01:47:51.419Z,11.40
2018-04-01T01:50:19.925Z,11.33
2018-04-01T01:52:48.384Z,11.43
2018-04-01T01:55:16.821Z,10.63
2018-04-01T01:57:45.275Z,11.57
2018-04-01T02:00:13.857Z,11.87
2018-04-01T02:02:42.406Z,11.27
2018-04-01T02:05:11.710Z,12.40
2018-04-01T02:07:43.588Z,11.90
2018-04-01T02:10:12.025Z,10.60
2018-04-01T02:12:40.609Z,13.20
2018-04-01T02:15:09.930Z,11.40
2018-04-01T02:17:39.152Z,11.63
2018-04-01T02:20:07.728Z,11.47
2018-04-01T02:22:36.141Z,11.20
2018-04-01T02:25:04.837Z,11.67
2018-04-01T02:27:34.816Z,12.57
2018-04-01T02:30:03.288Z,12.77
2018-04-01T02:32:31.881Z,12.27
2018-04-01T02:35:00.344Z,12.27
2018-04-01T02:37:28.822Z,11.13
2018-04-01T02:39:57.270Z,12.77
2018-04-01T02:42:25.819Z,10.97
2018-04-01T02:44:54.279Z,10.77
2018-04-01T02:47:22.711Z,10.53
2018-04-01T02:49:51.210Z,10.80
2018-04-01T02:52:20.528Z,10.67
2018-04-01T02:54:49.106Z,10.57
2018-04-01T02:57:17.538Z,10.40
2018-04-01T02:59:46.432Z,11.37
2018-04-01T03:02:14.696Z,10.90
2018-04-01T03:04:42.956Z,11.30
2018-04-01T03:07:15.095Z,11.67
2018-04-01T03:09:44.345Z,10.00
2018-04-01T03:12:12.913Z,9.53
2018-04-01T03:14:41.370Z,11.30
2018-04-01T03:17:09.787Z,11.30
2018-04-01T03:19:38.216Z,11.17
2018-04-01T03:22:06.801Z,10.80
2018-04-01T03:24:35.324Z,9.87
2018-04-01T03:27:04.068Z,11.00
2018-04-01T03:29:33.369Z,10.10
2018-04-01T03:32:02.571Z,10.57
2018-04-01T03:34:30.983Z,10.20
2018-04-01T03:36:59.432Z,10.30
2018-04-01T03:39:31.476Z,11.00
2018-04-01T03:42:00.645Z,11.00
2018-04-01T03:44:29.171Z,10.60
2018-04-01T03:46:58.449Z,10.30
2018-04-01T03:49:27.650Z,11.67
2018-04-01T03:51:56.811Z,10.53
2018-04-01T03:54:25.239Z,10.80
2018-04-01T03:56:53.744Z,10.80
2018-04-01T03:59:22.164Z,11.67
2018-04-01T04:01:51.406Z,11.30
2018-04-01T04:04:20.570Z,10.60
2018-04-01T04:06:49.794Z,12.07
2018-04-01T04:09:19.022Z,11.23
2018-04-01T04:11:47.473Z,12.20
2018-04-01T04:14:16.681Z,11.03
2018-04-01T04:16:45.162Z,11.50
2018-04-01T04:19:13.685Z,11.03
2018-04-01T04:21:42.223Z,11.40
2018-04-01T04:24:12.413Z,11.20
2018-04-01T04:26:42.362Z,10.87
2018-04-01T04:29:10.838Z,10.53
2018-04-01T04:31:39.342Z,11.07
2018-04-01T04:34:07.756Z,11.10
2018-04-01T04:36:36.280Z,10.10
2018-04-01T04:39:04.714Z,10.33
2018-04-01T04:41:33.778Z,10.90
2018-04-01T04:44:03.178Z,9.80
2018-04-01T04:46:31.571Z,10.27
2018-04-01T04:49:00.271Z,10.00
2018-04-01T04:51:28.690Z,9.37
2018-04-01T04:53:58.106Z,9.77
2018-04-01T04:56:27.173Z,9.60
2018-04-01T04:58:55.724Z,10.07
2018-04-01T05:01:24.174Z,8.37
2018-04-01T05:03:52.561Z,8.63
2018-04-01T05:06:21.019Z,8.30
2018-04-01T05:08:50.303Z,7.70
2018-04-01T05:11:19.576Z,7.13
2018-04-01T05:13:49.431Z,5.33
2018-04-01T05:16:18.604Z,5.37
2018-04-01T05:18:47.836Z,5.40
2018-04-01T05:21:16.417Z,4.63
2018-04-01T05:23:45.034Z,4.80
2018-04-01T05:26:13.453Z,4.63
2018-04-01T05:28:41.890Z,4.20
2018-04-01T05:31:10.435Z,3.73
2018-04-01T05:33:39.766Z,4.17
2018-04-01T05:36:08.321Z,3.83
2018-04-01T05:38:37.478Z,4.00
2018-04-01T05:41:07.445Z,4.23
2018-04-01T05:43:35.853Z,4.10
2018-04-01T05:46:04.394Z,4.13
2018-04-01T05:48:32.968Z,4.23
2018-04-01T05:51:01.509Z,4.20
2018-04-01T05:53:29.946Z,4.37
2018-04-01T05:55:58.466Z,4.63
2018-04-01T05:58:26.946Z,4.47
2018-04-01T06:00:55.385Z,4.90
2018-04-01T06:03:23.864Z,5.37
2018-04-01T06:05:53.040Z,5.03
2018-04-01T06:08:21.474Z,5.77
2018-04-01T06:10:49.921Z,5.60
2018-04-01T06:13:19.218Z,6.27
2018-04-01T06:15:48.406Z,6.63
2018-04-01T06:18:18.854Z,7.30
2018-04-01T06:20:52.322Z,6.93
2018-04-01T06:23:42.508Z,7.47
2018-04-01T06:26:34.308Z,7.43
2018-04-01T06:29:02.696Z,7.63
2018-04-01T06:31:31.143Z,7.47
2018-04-01T06:33:59.813Z,7.80
2018-04-01T06:36:38.168Z,8.07
2018-04-01T06:39:06.600Z,7.80
2018-04-01T06:41:35.072Z,9.17
2018-04-01T06:44:03.554Z,7.77
2018-04-01T06:46:32.745Z,8.37
2018-04-01T06:49:01.181Z,7.80
2018-04-01T06:51:29.611Z,7.83
2018-04-01T06:53:58.204Z,8.17
2018-04-01T06:56:26.470Z,7.50
2018-04-01T06:58:55.629Z,7.47
2018-04-01T07:01:24.165Z,7.00
2018-04-01T07:04:05.104Z,7.73
2018-04-01T07:06:34.448Z,7.60
2018-04-01T07:09:02.937Z,7.13
2018-04-01T07:11:31.359Z,7.23
2018-04-01T07:14:00.558Z,7.17
2018-04-01T07:16:29.068Z,7.47
2018-04-01T07:18:57.477Z,7.63
2018-04-01T07:21:26.131Z,7.20
2018-04-01T07:23:55.336Z,7.43
2018-04-01T07:26:24.115Z,6.57
2018-04-01T07:28:52.511Z,7.00
2018-04-01T07:31:20.978Z,7.30
2018-04-01T07:33:51.297Z,7.00
2018-04-01T07:36:20.506Z,7.20
2018-04-01T07:38:49.800Z,6.83
2018-04-01T07:41:18.994Z,6.70
2018-04-01T07:43:47.481Z,6.83
2018-04-01T07:46:16.660Z,7.23
2018-04-01T07:48:45.829Z,7.17
2018-04-01T07:51:14.243Z,6.50
2018-04-01T07:53:42.729Z,6.27
2018-04-01T07:56:12.083Z,6.90
2018-04-01T07:58:40.527Z,6.57
2018-04-01T08:01:09.097Z,6.67
2018-04-01T08:03:37.579Z,7.20
2018-04-01T08:06:15.433Z,6.20
2018-04-01T08:08:43.839Z,6.77
2018-04-01T08:11:13.007Z,6.90
2018-04-01T08:13:41.586Z,6.83
2018-04-01T08:16:13.344Z,7.37
2018-04-01T08:18:41.817Z,7.50
2018-04-01T08:21:10.208Z,7.70
2018-04-01T08:23:38.667Z,7.50
2018-04-01T08:26:07.068Z,7.90
2018-04-01T08:28:37.000Z,7.60
2018-04-01T08:31:05.576Z,7.30
2018-04-01T08:33:34.026Z,7.47
2018-04-01T08:36:02.470Z,8.00
2018-04-01T08:38:30.892Z,7.80
2018-04-01T08:40:59.501Z,7.00
2018-04-01T08:43:27.928Z,7.10
2018-04-01T08:45:56.497Z,6.93
2018-04-01T08:48:25.696Z,7.23
2018-04-01T08:50:54.233Z,7.27
2018-04-01T08:53:22.668Z,6.90
2018-04-01T08:55:51.242Z,6.67
2018-04-01T08:58:19.665Z,6.47
2018-04-01T09:00:48.100Z,6.17
2018-04-01T09:03:16.581Z,6.20
2018-04-01T09:05:45.250Z,5.30
2018-04-01T09:08:14.570Z,5.80
2018-04-01T09:10:42.975Z,5.90
2018-04-01T09:13:11.436Z,5.50
2018-04-01T09:15:40.014Z,5.50
2018-04-01T09:18:08.410Z,5.90
2018-04-01T09:20:36.833Z,5.63
2018-04-01T09:23:05.413Z,5.60
2018-04-01T09:25:33.857Z,5.77
2018-04-01T09:28:02.291Z,6.50
2018-04-01T09:30:30.706Z,5.17
2018-04-01T09:32:59.117Z,5.00
2018-04-01T09:35:27.648Z,5.43
2018-04-01T09:37:56.862Z,5.57
2018-04-01T09:40:25.265Z,5.60
2018-04-01T09:42:53.722Z,5.40
2018-04-01T09:45:22.254Z,5.30
2018-04-01T09:47:50.658Z,5.10
2018-04-01T09:50:19.966Z,5.67
2018-04-01T09:52:48.449Z,5.60
2018-04-01T09:55:16.857Z,5.10
2018-04-01T09:57:45.416Z,5.20
2018-04-01T10:00:13.868Z,5.50
2018-04-01T10:02:43.010Z,4.77
2018-04-01T10:05:13.930Z,5.10
2018-04-01T10:07:43.740Z,5.47
2018-04-01T10:10:13.779Z,5.57
2018-04-01T10:12:43.052Z,4.73
2018-04-01T10:15:12.306Z,5.00
2018-04-01T10:17:41.655Z,4.50
2018-04-01T10:20:10.887Z,4.30
2018-04-01T10:22:40.110Z,4.20
2018-04-01T10:25:09.486Z,3.60
2018-04-01T10:27:38.706Z,2.80
2018-04-01T10:30:08.645Z,2.80
2018-04-01T10:32:37.960Z,2.77
2018-04-01T10:35:07.271Z,3.73
2018-04-01T10:37:36.675Z,3.93
2018-04-01T10:40:05.877Z,3.47
2018-04-01T10:42:35.064Z,4.33
2018-04-01T10:45:04.368Z,4.90
2018-04-01T10:47:33.766Z,5.00
2018-04-01T10:50:03.172Z,5.13
2018-04-01T10:52:32.392Z,5.10
2018-04-01T10:55:01.139Z,4.97
2018-04-01T10:57:29.844Z,5.10
2018-04-01T10:59:58.254Z,5.33
2018-04-01T11:02:26.696Z,5.83
2018-04-01T11:04:56.000Z,5.87
2018-04-01T11:07:25.206Z,5.90
2018-04-01T11:09:53.698Z,6.37
2018-04-01T11:12:22.111Z,6.37
2018-04-01T11:14:50.592Z,6.27
2018-04-01T11:17:19.027Z,5.40
2018-04-01T11:19:47.589Z,5.37
2018-04-01T11:22:16.185Z,5.90
2018-04-01T11:24:45.410Z,5.37
2018-04-01T11:27:14.722Z,5.60
2018-04-01T11:29:43.175Z,5.77
2018-04-01T11:32:11.838Z,6.20
2018-04-01T11:34:41.161Z,6.73
2018-04-01T11:37:09.627Z,6.50
2018-04-01T11:39:38.213Z,6.20
2018-04-01T11:42:07.436Z,6.50
2018-04-01T11:44:35.997Z,6.90
2018-04-01T11:47:04.460Z,6.90
2018-04-01T11:49:33.704Z,6.60
2018-04-01T11:52:02.174Z,5.50
2018-04-01T11:54:30.629Z,5.23
2018-04-01T11:56:59.196Z,4.20
2018-04-01T11:59:27.805Z,4.17
2018-04-01T12:01:57.085Z,4.17
2018-04-01T12:04:26.337Z,4.77
2018-04-01T12:06:54.984Z,5.53
2018-04-01T12:09:23.384Z,7.37
2018-04-01T12:11:51.799Z,7.17
2018-04-01T12:14:20.840Z,7.63
2018-04-01T12:16:49.274Z,7.43
2018-04-01T12:19:17.715Z,6.87
2018-04-01T12:21:46.163Z,2.97
2018-04-01T12:24:15.385Z,3.67
2018-04-01T12:26:43.802Z,5.20
2018-04-01T12:29:13.043Z,5.80
2018-04-01T12:31:42.284Z,7.10
2018-04-01T12:34:10.718Z,7.73
2018-04-01T12:36:39.888Z,6.27
2018-04-01T12:39:09.332Z,5.87
2018-04-01T12:41:38.569Z,6.57
2018-04-01T12:44:07.005Z,6.17
2018-04-01T12:46:36.198Z,6.17
2018-04-01T12:49:04.584Z,5.13
2018-04-01T12:51:33.742Z,5.17
2018-04-01T12:54:02.207Z,4.70
2018-04-01T12:56:30.656Z,4.00
2018-04-01T12:58:59.058Z,5.20
2018-04-01T13:01:27.465Z,5.30
2018-04-01T13:03:55.908Z,6.17
2018-04-01T13:06:24.318Z,6.03
2018-04-01T13:08:52.752Z,5.50
2018-04-01T13:11:21.166Z,6.67
2018-04-01T13:13:49.587Z,5.77
2018-04-01T13:16:18.016Z,6.33
2018-04-01T13:18:46.470Z,5.47
2018-04-01T13:21:14.830Z,5.60
2018-04-01T13:23:44.073Z,5.20
2018-04-01T13:26:12.468Z,5.20
2018-04-01T13:28:41.669Z,8.20
2018-04-01T13:31:10.110Z,6.07
2018-04-01T13:33:38.605Z,4.93
2018-04-01T13:36:07.159Z,5.10
2018-04-01T13:38:36.570Z,5.07
2018-04-01T13:41:08.172Z,5.17
2018-04-01T13:43:37.362Z,4.27
2018-04-01T13:46:05.790Z,2.40
2018-04-01T13:48:35.197Z,1.33
2018-04-01T13:51:04.564Z,2.30
2018-04-01T13:53:33.009Z,2.40
2018-04-01T13:56:01.558Z,2.67
2018-04-01T13:58:30.150Z,3.13
2018-04-01T14:00:58.779Z,3.00
2018-04-01T14:03:27.360Z,2.83
2018-04-01T14:05:55.836Z,3.40
2018-04-01T14:08:26.187Z,3.60
2018-04-01T14:10:54.635Z,3.50
2018-04-01T14:13:24.973Z,3.07
2018-04-01T14:15:53.503Z,3.60
2018-04-01T14:18:21.917Z,2.90
2018-04-01T14:20:50.386Z,2.80
2018-04-01T14:23:18.884Z,3.30
2018-04-01T14:25:47.326Z,3.30
2018-04-01T14:28:20.778Z,3.40
2018-04-01T14:30:49.216Z,3.00
2018-04-01T14:33:17.879Z,2.67
2018-04-01T14:35:47.187Z,3.23
2018-04-01T14:38:16.482Z,3.00
2018-04-01T14:40:45.681Z,3.10
2018-04-01T14:43:18.299Z,3.20
2018-04-01T14:45:46.664Z,3.10
2018-04-01T14:48:15.081Z,2.90
2018-04-01T14:50:43.483Z,3.80
2018-04-01T14:53:12.623Z,3.30
2018-04-01T14:55:41.248Z,3.03
2018-04-01T14:58:09.661Z,3.50
2018-04-01T15:00:38.054Z,3.13
2018-04-01T15:03:06.483Z,3.00
2018-04-01T15:05:34.982Z,3.33
2018-04-01T15:08:04.142Z,3.70
2018-04-01T15:10:32.576Z,3.70
2018-04-01T15:13:00.959Z,4.10
2018-04-01T15:15:30.324Z,3.77
2018-04-01T15:17:59.557Z,3.90
2018-04-01T15:20:27.970Z,3.40
2018-04-01T15:22:56.502Z,3.63
2018-04-01T15:25:24.999Z,4.00
2018-04-01T15:27:53.584Z,3.70
2018-04-01T15:30:22.885Z,3.53
2018-04-01T15:32:52.077Z,3.23
2018-04-01T15:35:20.490Z,4.43
2018-04-01T15:37:48.942Z,4.30
2018-04-01T15:40:17.433Z,4.40
2018-04-01T15:42:49.408Z,3.90
2018-04-01T15:45:17.967Z,3.60
2018-04-01T15:47:47.293Z,3.57
2018-04-01T15:50:15.752Z,3.43
2018-04-01T15:52:44.280Z,3.00
2018-04-01T15:55:12.705Z,3.23
2018-04-01T15:57:41.137Z,4.30
2018-04-01T16:00:09.777Z,5.10
2018-04-01T16:02:38.356Z,5.13
2018-04-01T16:05:08.674Z,5.20
2018-04-01T16:07:37.108Z,5.13
2018-04-01T16:10:05.522Z,4.83
2018-04-01T16:12:34.771Z,4.70
2018-04-01T16:15:03.325Z,4.87
2018-04-01T16:17:31.985Z,4.37
2018-04-01T16:20:04.627Z,4.10
2018-04-01T16:22:33.245Z,3.53
2018-04-01T16:25:02.470Z,3.80
2018-04-01T16:27:30.950Z,3.47
2018-04-01T16:29:59.379Z,4.10
2018-04-01T16:32:28.013Z,3.53
2018-04-01T16:34:57.153Z,3.60
2018-04-01T16:37:25.613Z,3.50
2018-04-01T16:39:54.109Z,3.30
2018-04-01T16:42:22.552Z,3.33
2018-04-01T16:44:51.729Z,3.83
2018-04-01T16:47:20.133Z,3.73
2018-04-01T16:49:48.653Z,3.63
2018-04-01T16:52:17.121Z,3.97
2018-04-01T16:54:45.571Z,5.07
2018-04-01T16:57:14.148Z,5.37
2018-04-01T16:59:43.458Z,6.03
2018-04-01T17:02:12.044Z,6.57
2018-04-01T17:04:40.442Z,4.83
2018-04-01T17:07:08.921Z,4.37
2018-04-01T17:09:37.434Z,4.37
2018-04-01T17:12:05.798Z,4.17
2018-04-01T17:14:34.253Z,4.70
2018-04-01T17:17:02.683Z,4.83
2018-04-01T17:19:31.255Z,5.50
2018-04-01T17:21:59.776Z,5.50
2018-04-01T17:24:28.938Z,6.37
2018-04-01T17:26:57.454Z,5.43
2018-04-01T17:29:26.601Z,5.90
2018-04-01T17:31:55.029Z,6.17
2018-04-01T17:34:24.447Z,5.43
2018-04-01T17:36:52.960Z,6.10
2018-04-01T17:39:21.386Z,6.13
2018-04-01T17:41:49.820Z,6.40
2018-04-01T17:44:18.292Z,7.13
2018-04-01T17:46:46.734Z,6.87
2018-04-01T17:49:15.171Z,8.00
2018-04-01T17:51:43.590Z,7.83
2018-04-01T17:54:12.130Z,8.17
2018-04-01T17:56:40.565Z,7.40
2018-04-01T17:59:09.120Z,8.17
2018-04-01T18:01:38.316Z,8.20
2018-04-01T18:04:07.742Z,9.10
2018-04-01T18:06:36.928Z,9.30
2018-04-01T18:09:06.167Z,8.43
2018-04-01T18:11:34.689Z,9.57
2018-04-01T18:14:03.090Z,9.87
2018-04-01T18:16:32.296Z,9.60
2018-04-01T18:19:00.804Z,10.40
2018-04-01T18:21:29.246Z,10.93
2018-04-01T18:23:58.479Z,11.60
2018-04-01T18:26:26.888Z,11.53
2018-04-01T18:28:55.389Z,11.20
2018-04-01T18:31:23.839Z,10.90
2018-04-01T18:33:52.367Z,10.67
2018-04-01T18:36:20.854Z,9.10
2018-04-01T18:38:49.389Z,10.10
2018-04-01T18:41:17.808Z,8.57
2018-04-01T18:43:47.048Z,7.53
2018-04-01T18:46:15.507Z,7.70
2018-04-01T18:48:44.108Z,7.57
2018-04-01T18:51:12.541Z,7.13
2018-04-01T18:53:41.735Z,6.70
2018-04-01T18:56:10.270Z,6.73
2018-04-01T18:58:38.751Z,6.10
2018-04-01T19:01:07.211Z,6.93
2018-04-01T19:03:36.346Z,5.93
2018-04-01T19:06:04.826Z,6.77
2018-04-01T19:08:33.261Z,6.23
2018-04-01T19:11:02.458Z,6.43
2018-04-01T19:13:31.042Z,6.47
2018-04-01T19:16:00.752Z,6.93
2018-04-01T19:18:30.488Z,6.50
2018-04-01T19:20:59.728Z,5.97
2018-04-01T19:23:28.966Z,5.87
2018-04-01T19:25:58.137Z,6.67
2018-04-01T19:28:27.466Z,7.20
2018-04-01T19:30:56.694Z,7.60
2018-04-01T19:33:26.674Z,7.57
2018-04-01T19:35:56.010Z,6.67
2018-04-01T19:38:26.096Z,7.70
2018-04-01T19:40:55.418Z,7.70
2018-04-01T19:43:24.747Z,7.03
2018-04-01T19:45:53.956Z,7.30
2018-04-01T19:48:23.292Z,6.70
2018-04-01T19:50:52.593Z,7.27
2018-04-01T19:53:21.918Z,6.03
2018-04-01T19:55:51.205Z,6.70
2018-04-01T19:58:20.539Z,7.57
2018-04-01T20:00:49.999Z,8.13
2018-04-01T20:03:19.402Z,7.70
2018-04-01T20:05:48.665Z,8.10
2018-04-01T20:08:18.006Z,6.80
2018-04-01T20:10:47.246Z,6.83
2018-04-01T20:13:17.224Z,6.80
2018-04-01T20:15:46.515Z,7.63
2018-04-01T20:18:15.733Z,7.13
2018-04-01T20:20:45.080Z,7.17
2018-04-01T20:23:14.451Z,7.77
2018-04-01T20:25:43.745Z,6.87
2018-04-01T20:28:13.118Z,7.03
2018-04-01T20:30:42.463Z,7.93
2018-04-01T20:33:11.752Z,7.90
2018-04-01T20:35:41.772Z,7.73
2018-04-01T20:38:11.807Z,7.93
2018-04-01T20:40:41.782Z,8.17
2018-04-01T20:43:11.998Z,8.30
2018-04-01T20:45:41.238Z,8.40
2018-04-01T20:48:10.693Z,7.97
2018-04-01T20:50:40.201Z,8.73
2018-04-01T20:53:13.286Z,8.17
2018-04-01T20:55:42.566Z,8.00
2018-04-01T20:58:11.729Z,9.33
2018-04-01T21:00:40.912Z,8.97
2018-04-01T21:03:10.977Z,9.13
2018-04-01T21:05:40.301Z,9.43
2018-04-01T21:08:10.289Z,9.50
2018-04-01T21:10:39.721Z,10.83
2018-04-01T21:13:09.027Z,9.80
2018-04-01T21:15:38.217Z,8.87
2018-04-01T21:18:07.502Z,9.63
2018-04-01T21:20:36.702Z,9.60
2018-04-01T21:23:05.925Z,8.47
2018-04-01T21:25:35.160Z,8.50
2018-04-01T21:28:05.188Z,8.53
2018-04-01T21:30:34.449Z,8.87
2018-04-01T21:33:03.787Z,8.63
2018-04-01T21:35:33.013Z,9.00
2018-04-01T21:38:02.327Z,9.10
2018-04-01T21:40:31.652Z,9.37
2018-04-01T21:43:00.898Z,9.70
2018-04-01T21:45:30.183Z,9.47
2018-04-01T21:48:00.255Z,9.67
2018-04-01T21:50:29.645Z,9.17
2018-04-01T21:52:58.938Z,9.90
2018-04-01T21:55:28.287Z,10.87
2018-04-01T21:57:58.304Z,10.77
2018-04-01T22:00:27.547Z,10.20
2018-04-01T22:02:56.828Z,10.00
2018-04-01T22:05:26.073Z,9.93
2018-04-01T22:07:55.403Z,10.60
2018-04-01T22:10:25.378Z,10.47
2018-04-01T22:12:54.782Z,10.47
2018-04-01T22:15:23.989Z,10.60
2018-04-01T22:17:53.235Z,10.43
2018-04-01T22:20:22.545Z,9.93
2018-04-01T22:23:03.753Z,10.00
2018-04-01T22:25:33.000Z,10.50
2018-04-01T22:28:02.982Z,11.30
2018-04-01T22:30:32.182Z,10.83
2018-04-01T22:33:01.456Z,10.73
2018-04-01T22:35:32.605Z,11.07
2018-04-01T22:38:01.853Z,11.10
2018-04-01T22:40:31.842Z,11.27
2018-04-01T22:43:01.061Z,11.30
2018-04-01T22:45:30.281Z,10.97
2018-04-01T22:48:00.411Z,11.50
2018-04-01T22:50:29.635Z,12.27
2018-04-01T22:52:59.048Z,11.33
2018-04-01T22:55:28.287Z,11.77
2018-04-01T22:57:57.652Z,10.67
2018-04-01T23:00:26.953Z,11.97
2018-04-01T23:02:59.121Z,12.43
2018-04-01T23:05:28.366Z,11.17
2018-04-01T23:07:57.594Z,11.73
2018-04-01T23:10:26.913Z,11.73
2018-04-01T23:12:56.157Z,11.97
2018-04-01T23:15:29.652Z,11.07
2018-04-01T23:17:58.885Z,11.20
2018-04-01T23:20:28.202Z,12.10
2018-04-01T23:22:57.441Z,12.40
2018-04-01T23:25:26.743Z,12.00
2018-04-01T23:27:56.114Z,12.70
2018-04-01T23:30:25.409Z,13.00
2018-04-01T23:32:54.690Z,12.07
2018-04-01T23:35:23.942Z,13.20
2018-04-01T23:37:54.131Z,13.70
2018-04-01T23:40:23.318Z,13.40
2018-04-01T23:42:52.535Z,13.27
2018-04-01T23:45:21.926Z,14.03
2018-04-01T23:47:51.190Z,13.90
2018-04-01T23:50:20.383Z,14.33
2018-04-01T23:52:49.667Z,14.00
2018-04-01T23:55:19.707Z,14.67
2018-04-01T23:57:48.893Z,15.20
